sensor_id;sensor_type;location;lat;lon;timestamp;pressure;altitude;pressure_sealevel;temperature;humidity
75420;BME280;63998;52.488;13.428;2023-07-02T00:01:21;99845.03;;;17.98;78.10
75420;BME280;63998;52.488;13.428;2023-07-02T00:03:46;99841.63;;;17.96;78.40
75420;BME280;63998;52.488;13.428;2023-07-02T00:06:12;99855.69;;;17.95;78.10
75420;BME280;63998;52.488;13.428;2023-07-02T00:08:37;99855.81;;;17.92;78.59
75420;BME280;63998;52.488;13.428;2023-07-02T00:11:02;99853.84;;;17.97;78.22
75420;BME280;63998;52.488;13.428;2023-07-02T00:13:28;99862.00;;;17.91;78.59
75420;BME280;63998;52.488;13.428;2023-07-02T00:15:53;99857.78;;;17.87;78.83
75420;BME280;63998;52.488;13.428;2023-07-02T00:18:18;99858.69;;;17.86;78.90
75420;BME280;63998;52.488;13.428;2023-07-02T00:20:44;99857.78;;;17.87;79.26
75420;BME280;63998;52.488;13.428;2023-07-02T00:23:09;99853.50;;;17.84;79.59
75420;BME280;63998;52.488;13.428;2023-07-02T00:25:35;99871.38;;;17.76;79.94
75420;BME280;63998;52.488;13.428;2023-07-02T00:28:01;99858.03;;;17.81;79.98
75420;BME280;63998;52.488;13.428;2023-07-02T00:30:26;99861.31;;;17.86;79.95
75420;BME280;63998;52.488;13.428;2023-07-02T00:32:51;99856.25;;;17.81;80.05
75420;BME280;63998;52.488;13.428;2023-07-02T00:35:17;99868.81;;;17.75;80.11
75420;BME280;63998;52.488;13.428;2023-07-02T00:37:42;99878.34;;;17.77;80.17
75420;BME280;63998;52.488;13.428;2023-07-02T00:40:08;99867.09;;;17.74;80.04
75420;BME280;63998;52.488;13.428;2023-07-02T00:42:33;99870.63;;;17.73;80.27
75420;BME280;63998;52.488;13.428;2023-07-02T00:44:59;99872.34;;;17.74;80.44
75420;BME280;63998;52.488;13.428;2023-07-02T00:47:28;99882.97;;;17.71;79.86
75420;BME280;63998;52.488;13.428;2023-07-02T00:49:54;99860.25;;;17.70;80.02
75420;BME280;63998;52.488;13.428;2023-07-02T00:52:20;99867.88;;;17.76;80.10
75420;BME280;63998;52.488;13.428;2023-07-02T00:54:46;99873.19;;;17.74;79.59
75420;BME280;63998;52.488;13.428;2023-07-02T00:57:11;99869.13;;;17.67;79.86
75420;BME280;63998;52.488;13.428;2023-07-02T00:59:37;99872.47;;;17.71;79.50
75420;BME280;63998;52.488;13.428;2023-07-02T01:02:04;99860.41;;;17.67;79.85
75420;BME280;63998;52.488;13.428;2023-07-02T01:04:30;99881.41;;;17.67;79.23
75420;BME280;63998;52.488;13.428;2023-07-02T01:06:56;99864.78;;;17.66;79.08
75420;BME280;63998;52.488;13.428;2023-07-02T01:09:23;99872.63;;;17.68;78.99
75420;BME280;63998;52.488;13.428;2023-07-02T01:11:57;99877.72;;;17.71;78.84
75420;BME280;63998;52.488;13.428;2023-07-02T01:14:38;99865.50;;;17.70;78.85
75420;BME280;63998;52.488;13.428;2023-07-02T01:17:05;99876.69;;;17.75;78.25
75420;BME280;63998;52.488;13.428;2023-07-02T01:19:49;99878.78;;;17.67;78.54
75420;BME280;63998;52.488;13.428;2023-07-02T01:22:26;99878.78;;;17.67;78.01
75420;BME280;63998;52.488;13.428;2023-07-02T01:24:52;99880.66;;;17.63;77.83
75420;BME280;63998;52.488;13.428;2023-07-02T01:27:19;99876.00;;;17.70;77.40
75420;BME280;63998;52.488;13.428;2023-07-02T01:29:44;99877.97;;;17.65;76.93
75420;BME280;63998;52.488;13.428;2023-07-02T01:32:12;99877.97;;;17.65;77.19
75420;BME280;63998;52.488;13.428;2023-07-02T01:34:37;99888.38;;;17.68;77.25
75420;BME280;63998;52.488;13.428;2023-07-02T01:37:04;99873.84;;;17.57;77.59
75420;BME280;63998;52.488;13.428;2023-07-02T01:39:29;99888.84;;;17.55;77.90
75420;BME280;63998;52.488;13.428;2023-07-02T01:42:06;99886.66;;;17.67;77.53
75420;BME280;63998;52.488;13.428;2023-07-02T01:44:31;99888.38;;;17.68;77.46
75420;BME280;63998;52.488;13.428;2023-07-02T01:46:57;99893.81;;;17.62;77.60
75420;BME280;63998;52.488;13.428;2023-07-02T01:49:24;99905.97;;;17.66;77.62
75420;BME280;63998;52.488;13.428;2023-07-02T01:51:53;99887.78;;;17.59;77.75
75420;BME280;63998;52.488;13.428;2023-07-02T01:54:19;99907.56;;;17.46;77.49
75420;BME280;63998;52.488;13.428;2023-07-02T01:56:45;99892.72;;;17.45;77.95
75420;BME280;63998;52.488;13.428;2023-07-02T01:59:10;99895.66;;;17.38;77.85
75420;BME280;63998;52.488;13.428;2023-07-02T02:01:36;99924.47;;;17.39;77.25
75420;BME280;63998;52.488;13.428;2023-07-02T02:04:09;99896.50;;;17.38;76.92
75420;BME280;63998;52.488;13.428;2023-07-02T02:06:35;99891.50;;;17.32;77.19
75420;BME280;63998;52.488;13.428;2023-07-02T02:09:02;99894.81;;;17.37;77.35
75420;BME280;63998;52.488;13.428;2023-07-02T02:11:32;99901.66;;;17.41;77.13
75420;BME280;63998;52.488;13.428;2023-07-02T02:13:58;99890.91;;;17.47;76.81
75420;BME280;63998;52.488;13.428;2023-07-02T02:16:24;99891.56;;;17.52;76.23
75420;BME280;63998;52.488;13.428;2023-07-02T02:18:49;99894.16;;;17.54;75.92
75420;BME280;63998;52.488;13.428;2023-07-02T02:21:19;99897.16;;;17.43;76.51
75420;BME280;63998;52.488;13.428;2023-07-02T02:23:44;99906.59;;;17.49;76.17
75420;BME280;63998;52.488;13.428;2023-07-02T02:26:10;99910.38;;;17.42;76.48
75420;BME280;63998;52.488;13.428;2023-07-02T02:28:35;99917.41;;;17.41;76.14
75420;BME280;63998;52.488;13.428;2023-07-02T02:31:01;99918.53;;;17.34;76.70
75420;BME280;63998;52.488;13.428;2023-07-02T02:33:27;99913.09;;;17.17;76.83
75420;BME280;63998;52.488;13.428;2023-07-02T02:35:52;99913.59;;;17.27;76.64
75420;BME280;63998;52.488;13.428;2023-07-02T02:38:17;99913.34;;;17.33;76.64
75420;BME280;63998;52.488;13.428;2023-07-02T02:40:43;99910.78;;;17.31;76.61
75420;BME280;63998;52.488;13.428;2023-07-02T02:43:08;99917.56;;;17.37;76.16
75420;BME280;63998;52.488;13.428;2023-07-02T02:45:33;99914.72;;;17.19;76.19
75420;BME280;63998;52.488;13.428;2023-07-02T02:47:59;99919.94;;;17.21;76.35
75420;BME280;63998;52.488;13.428;2023-07-02T02:50:24;99910.19;;;17.24;76.55
75420;BME280;63998;52.488;13.428;2023-07-02T02:52:49;99913.59;;;17.27;75.89
75420;BME280;63998;52.488;13.428;2023-07-02T02:55:15;99912.84;;;17.23;76.23
75420;BME280;63998;52.488;13.428;2023-07-02T02:57:40;99925.38;;;17.16;76.58
75420;BME280;63998;52.488;13.428;2023-07-02T03:00:06;99914.25;;;17.10;76.70
75420;BME280;63998;52.488;13.428;2023-07-02T03:02:35;99916.00;;;17.09;76.75
75420;BME280;63998;52.488;13.428;2023-07-02T03:05:01;99921.16;;;17.12;76.35
75420;BME280;63998;52.488;13.428;2023-07-02T03:07:31;99929.19;;;17.08;76.22
75420;BME280;63998;52.488;13.428;2023-07-02T03:09:56;99923.16;;;17.06;76.21
75420;BME280;63998;52.488;13.428;2023-07-02T03:12:22;99927.59;;;17.04;76.52
75420;BME280;63998;52.488;13.428;2023-07-02T03:14:47;99918.81;;;17.05;76.28
75420;BME280;63998;52.488;13.428;2023-07-02T03:17:16;99926.59;;;17.06;76.33
75420;BME280;63998;52.488;13.428;2023-07-02T03:19:42;99917.22;;;17.01;76.69
75420;BME280;63998;52.488;13.428;2023-07-02T03:22:07;99915.75;;;16.94;76.21
75420;BME280;63998;52.488;13.428;2023-07-02T03:24:32;99919.16;;;16.96;76.25
75420;BME280;63998;52.488;13.428;2023-07-02T03:26:58;99921.72;;;16.97;76.44
75420;BME280;63998;52.488;13.428;2023-07-02T03:29:23;99920.81;;;16.98;76.33
75420;BME280;63998;52.488;13.428;2023-07-02T03:31:49;99932.84;;;17.04;75.95
75420;BME280;63998;52.488;13.428;2023-07-02T03:34:14;99932.72;;;17.07;75.80
75420;BME280;63998;52.488;13.428;2023-07-02T03:36:39;99924.19;;;17.02;75.82
75420;BME280;63998;52.488;13.428;2023-07-02T03:39:05;99931.25;;;17.00;75.65
75420;BME280;63998;52.488;13.428;2023-07-02T03:41:31;99925.19;;;16.98;75.61
75420;BME280;63998;52.488;13.428;2023-07-02T03:43:56;99927.06;;;16.94;75.44
75420;BME280;63998;52.488;13.428;2023-07-02T03:46:21;99942.75;;;16.96;75.50
75420;BME280;63998;52.488;13.428;2023-07-02T03:48:47;99931.34;;;16.97;74.94
75420;BME280;63998;52.488;13.428;2023-07-02T03:51:12;99932.97;;;17.01;74.32
75420;BME280;63998;52.488;13.428;2023-07-02T03:53:39;99935.44;;;17.05;74.29
75420;BME280;63998;52.488;13.428;2023-07-02T03:56:05;99934.47;;;17.06;73.98
75420;BME280;63998;52.488;13.428;2023-07-02T03:58:30;99935.69;;;16.98;73.93
75420;BME280;63998;52.488;13.428;2023-07-02T04:00:55;99941.00;;;16.96;73.26
75420;BME280;63998;52.488;13.428;2023-07-02T04:03:21;99948.84;;;16.96;73.27
75420;BME280;63998;52.488;13.428;2023-07-02T04:05:46;99963.19;;;16.87;73.62
75420;BME280;63998;52.488;13.428;2023-07-02T04:08:11;99944.72;;;16.91;73.68
75420;BME280;63998;52.488;13.428;2023-07-02T04:10:37;99936.78;;;16.92;73.16
75420;BME280;63998;52.488;13.428;2023-07-02T04:13:02;99957.72;;;16.94;73.21
75420;BME280;63998;52.488;13.428;2023-07-02T04:15:28;99960.91;;;17.02;73.19
75420;BME280;63998;52.488;13.428;2023-07-02T04:17:53;99949.31;;;17.07;72.25
75420;BME280;63998;52.488;13.428;2023-07-02T04:20:19;99962.28;;;17.12;72.74
75420;BME280;63998;52.488;13.428;2023-07-02T04:22:45;99951.16;;;17.05;72.25
75420;BME280;63998;52.488;13.428;2023-07-02T04:25:12;99967.06;;;17.01;72.58
75420;BME280;63998;52.488;13.428;2023-07-02T04:27:40;99954.06;;;16.98;72.18
75420;BME280;63998;52.488;13.428;2023-07-02T04:30:06;99963.34;;;17.06;72.46
75420;BME280;63998;52.488;13.428;2023-07-02T04:32:33;99961.78;;;17.02;71.96
75420;BME280;63998;52.488;13.428;2023-07-02T04:34:58;99953.72;;;17.07;72.26
75420;BME280;63998;52.488;13.428;2023-07-02T04:37:23;99957.88;;;17.12;71.67
75420;BME280;63998;52.488;13.428;2023-07-02T04:39:49;99959.69;;;17.10;71.12
75420;BME280;63998;52.488;13.428;2023-07-02T04:42:14;99978.03;;;17.12;71.40
75420;BME280;63998;52.488;13.428;2023-07-02T04:44:40;99976.41;;;17.08;71.38
75420;BME280;63998;52.488;13.428;2023-07-02T04:47:08;99983.16;;;17.15;71.43
75420;BME280;63998;52.488;13.428;2023-07-02T04:49:33;99972.41;;;17.21;70.76
75420;BME280;63998;52.488;13.428;2023-07-02T04:51:59;99978.53;;;17.21;70.81
75420;BME280;63998;52.488;13.428;2023-07-02T04:54:24;99989.88;;;17.22;70.40
75420;BME280;63998;52.488;13.428;2023-07-02T04:56:50;99986.47;;;17.20;70.04
75420;BME280;63998;52.488;13.428;2023-07-02T04:59:16;99987.22;;;17.23;70.29
75420;BME280;63998;52.488;13.428;2023-07-02T05:01:41;99989.28;;;17.15;70.58
75420;BME280;63998;52.488;13.428;2023-07-02T05:04:09;99986.47;;;17.20;70.50
75420;BME280;63998;52.488;13.428;2023-07-02T05:06:35;99993.38;;;17.22;70.59
75420;BME280;63998;52.488;13.428;2023-07-02T05:09:00;99979.16;;;17.28;70.35
75420;BME280;63998;52.488;13.428;2023-07-02T05:11:25;99987.09;;;17.27;70.42
75420;BME280;63998;52.488;13.428;2023-07-02T05:13:51;100015.91;;;17.28;70.26
75420;BME280;63998;52.488;13.428;2023-07-02T05:16:16;99997.81;;;17.20;70.03
75420;BME280;63998;52.488;13.428;2023-07-02T05:18:42;99996.75;;;17.26;69.66
75420;BME280;63998;52.488;13.428;2023-07-02T05:21:07;99981.38;;;17.39;69.55
75420;BME280;63998;52.488;13.428;2023-07-02T05:23:32;99998.22;;;17.33;68.90
75420;BME280;63998;52.488;13.428;2023-07-02T05:25:58;99993.09;;;17.30;68.84
75420;BME280;63998;52.488;13.428;2023-07-02T05:28:24;100004.81;;;17.43;68.98
75420;BME280;63998;52.488;13.428;2023-07-02T05:30:49;100006.47;;;17.46;69.25
75420;BME280;63998;52.488;13.428;2023-07-02T05:33:15;99990.97;;;17.40;69.07
75420;BME280;63998;52.488;13.428;2023-07-02T05:35:40;100001.41;;;17.41;68.38
75420;BME280;63998;52.488;13.428;2023-07-02T05:38:05;100002.19;;;17.43;67.96
75420;BME280;63998;52.488;13.428;2023-07-02T05:40:31;100011.69;;;17.47;67.75
75420;BME280;63998;52.488;13.428;2023-07-02T05:42:56;100018.44;;;17.54;67.42
75420;BME280;63998;52.488;13.428;2023-07-02T05:45:22;100008.53;;;17.61;67.53
75420;BME280;63998;52.488;13.428;2023-07-02T05:47:48;100012.84;;;17.64;67.49
75420;BME280;63998;52.488;13.428;2023-07-02T05:50:14;100028.78;;;17.57;66.68
75420;BME280;63998;52.488;13.428;2023-07-02T05:52:39;100007.59;;;17.64;66.92
75420;BME280;63998;52.488;13.428;2023-07-02T05:55:07;100020.13;;;17.55;66.97
75420;BME280;63998;52.488;13.428;2023-07-02T05:57:35;100013.03;;;17.57;66.95
75420;BME280;63998;52.488;13.428;2023-07-02T06:00:00;100029.03;;;17.51;65.89
75420;BME280;63998;52.488;13.428;2023-07-02T06:02:26;100005.84;;;17.63;65.84
75420;BME280;63998;52.488;13.428;2023-07-02T06:04:51;100014.31;;;17.71;66.14
75420;BME280;63998;52.488;13.428;2023-07-02T06:07:16;100018.84;;;17.89;65.65
75420;BME280;63998;52.488;13.428;2023-07-02T06:09:42;100019.81;;;18.08;65.03
75420;BME280;63998;52.488;13.428;2023-07-02T06:12:07;100033.16;;;18.25;64.16
75420;BME280;63998;52.488;13.428;2023-07-02T06:14:33;100020.28;;;18.40;64.23
75420;BME280;63998;52.488;13.428;2023-07-02T06:16:58;100019.19;;;18.23;63.90
75420;BME280;63998;52.488;13.428;2023-07-02T06:19:24;100011.31;;;18.23;63.98
75420;BME280;63998;52.488;13.428;2023-07-02T06:21:49;100010.28;;;18.27;63.31
75420;BME280;63998;52.488;13.428;2023-07-02T06:24:15;100023.47;;;18.26;62.92
75420;BME280;63998;52.488;13.428;2023-07-02T06:26:40;100015.31;;;18.32;62.61
75420;BME280;63998;52.488;13.428;2023-07-02T06:29:05;100039.84;;;18.33;61.52
75420;BME280;63998;52.488;13.428;2023-07-02T06:31:30;100022.34;;;18.31;61.03
75420;BME280;63998;52.488;13.428;2023-07-02T06:33:56;100010.97;;;18.31;60.93
75420;BME280;63998;52.488;13.428;2023-07-02T06:36:21;100012.97;;;18.26;61.23
75420;BME280;63998;52.488;13.428;2023-07-02T06:38:46;100005.25;;;18.21;61.43
75420;BME280;63998;52.488;13.428;2023-07-02T06:41:12;99999.09;;;18.22;60.97
75420;BME280;63998;52.488;13.428;2023-07-02T06:43:37;99994.13;;;18.37;61.15
75420;BME280;63998;52.488;13.428;2023-07-02T06:46:03;100011.59;;;18.38;61.23
75420;BME280;63998;52.488;13.428;2023-07-02T06:48:28;100020.53;;;18.34;61.25
75420;BME280;63998;52.488;13.428;2023-07-02T06:50:55;100032.25;;;18.47;60.84
75420;BME280;63998;52.488;13.428;2023-07-02T06:53:21;100029.81;;;18.42;60.93
75420;BME280;63998;52.488;13.428;2023-07-02T06:55:46;100029.75;;;18.44;60.59
75420;BME280;63998;52.488;13.428;2023-07-02T06:58:11;100033.56;;;18.57;59.96
75420;BME280;63998;52.488;13.428;2023-07-02T07:00:37;100012.31;;;18.63;60.09
75420;BME280;63998;52.488;13.428;2023-07-02T07:03:03;100011.22;;;18.47;59.99
75420;BME280;63998;52.488;13.428;2023-07-02T07:05:32;100012.53;;;18.57;59.92
75420;BME280;63998;52.488;13.428;2023-07-02T07:07:58;100016.44;;;18.69;59.55
75420;BME280;63998;52.488;13.428;2023-07-02T07:10:24;100018.47;;;18.82;58.54
75420;BME280;63998;52.488;13.428;2023-07-02T07:12:49;100008.75;;;18.84;58.38
75420;BME280;63998;52.488;13.428;2023-07-02T07:15:15;100008.75;;;18.84;57.86
75420;BME280;63998;52.488;13.428;2023-07-02T07:17:40;100021.84;;;18.86;57.82
75420;BME280;63998;52.488;13.428;2023-07-02T07:20:06;100018.59;;;18.79;57.88
75420;BME280;63998;52.488;13.428;2023-07-02T07:22:31;100015.59;;;18.68;57.64
75420;BME280;63998;52.488;13.428;2023-07-02T07:24:56;100028.69;;;18.70;57.21
75420;BME280;63998;52.488;13.428;2023-07-02T07:27:22;100017.28;;;18.69;57.26
75420;BME280;63998;52.488;13.428;2023-07-02T07:29:47;100039.81;;;18.76;57.29
75420;BME280;63998;52.488;13.428;2023-07-02T07:32:12;100023.22;;;18.94;57.06
75420;BME280;63998;52.488;13.428;2023-07-02T07:34:38;100013.59;;;19.14;57.01
75420;BME280;63998;52.488;13.428;2023-07-02T07:37:03;100018.97;;;19.11;56.96
75420;BME280;63998;52.488;13.428;2023-07-02T07:39:30;100012.59;;;19.35;56.00
75420;BME280;63998;52.488;13.428;2023-07-02T07:41:55;100027.53;;;19.16;55.37
75420;BME280;63998;52.488;13.428;2023-07-02T07:44:20;100023.13;;;19.16;55.64
75420;BME280;63998;52.488;13.428;2023-07-02T07:46:45;100027.38;;;19.19;55.73
75420;BME280;63998;52.488;13.428;2023-07-02T07:49:12;100027.00;;;19.08;55.55
75420;BME280;63998;52.488;13.428;2023-07-02T07:51:38;100046.78;;;18.77;55.41
75420;BME280;63998;52.488;13.428;2023-07-02T07:54:04;100060.63;;;18.81;55.83
75420;BME280;63998;52.488;13.428;2023-07-02T07:56:29;100045.44;;;18.67;55.88
75420;BME280;63998;52.488;13.428;2023-07-02T07:58:54;100041.88;;;18.68;56.38
75420;BME280;63998;52.488;13.428;2023-07-02T08:01:20;100073.34;;;18.71;56.67
75420;BME280;63998;52.488;13.428;2023-07-02T08:03:45;100066.13;;;18.54;57.10
75420;BME280;63998;52.488;13.428;2023-07-02T08:06:11;100067.75;;;18.57;57.82
75420;BME280;63998;52.488;13.428;2023-07-02T08:08:36;100064.66;;;18.47;58.27
75420;BME280;63998;52.488;13.428;2023-07-02T08:11:01;100067.47;;;18.43;58.56
75420;BME280;63998;52.488;13.428;2023-07-02T08:13:27;100060.75;;;18.36;58.96
75420;BME280;63998;52.488;13.428;2023-07-02T08:15:52;100066.13;;;18.33;58.89
75420;BME280;63998;52.488;13.428;2023-07-02T08:18:17;100073.38;;;18.27;59.55
75420;BME280;63998;52.488;13.428;2023-07-02T08:20:43;100089.81;;;18.33;58.87
75420;BME280;63998;52.488;13.428;2023-07-02T08:23:08;100073.97;;;18.34;58.71
75420;BME280;63998;52.488;13.428;2023-07-02T08:25:33;100059.56;;;18.22;59.41
75420;BME280;63998;52.488;13.428;2023-07-02T08:27:59;100064.69;;;18.25;59.92
75420;BME280;63998;52.488;13.428;2023-07-02T08:30:24;100069.25;;;18.20;59.63
75420;BME280;63998;52.488;13.428;2023-07-02T08:32:49;100052.69;;;18.18;59.77
75420;BME280;63998;52.488;13.428;2023-07-02T08:35:15;100047.09;;;18.27;59.77
75420;BME280;63998;52.488;13.428;2023-07-02T08:37:40;100084.69;;;18.29;59.66
75420;BME280;63998;52.488;13.428;2023-07-02T08:40:06;100059.66;;;18.19;58.35
75420;BME280;63998;52.488;13.428;2023-07-02T08:42:33;100067.56;;;18.19;58.72
75420;BME280;63998;52.488;13.428;2023-07-02T08:44:59;100070.19;;;18.19;57.36
75420;BME280;63998;52.488;13.428;2023-07-02T08:47:24;100058.75;;;18.20;57.24
75420;BME280;63998;52.488;13.428;2023-07-02T08:49:50;100065.59;;;18.24;57.06
75420;BME280;63998;52.488;13.428;2023-07-02T08:52:15;100069.84;;;18.28;56.93
75420;BME280;63998;52.488;13.428;2023-07-02T08:54:41;100066.63;;;18.42;56.95
75420;BME280;63998;52.488;13.428;2023-07-02T08:57:09;100067.84;;;18.34;55.39
75420;BME280;63998;52.488;13.428;2023-07-02T08:59:35;100075.75;;;18.34;53.66
75420;BME280;63998;52.488;13.428;2023-07-02T09:02:01;100062.59;;;18.34;52.78
75420;BME280;63998;52.488;13.428;2023-07-02T09:04:26;100090.13;;;18.25;51.56
75420;BME280;63998;52.488;13.428;2023-07-02T09:09:29;100076.44;;;18.39;51.64
75420;BME280;63998;52.488;13.428;2023-07-02T09:11:54;100076.31;;;18.42;51.32
75420;BME280;63998;52.488;13.428;2023-07-02T09:14:27;100073.59;;;18.43;51.13
75420;BME280;63998;52.488;13.428;2023-07-02T09:17:07;100093.06;;;18.61;51.50
75420;BME280;63998;52.488;13.428;2023-07-02T09:19:34;100087.03;;;18.57;52.05
75420;BME280;63998;52.488;13.428;2023-07-02T09:22:00;100090.91;;;18.49;51.75
75420;BME280;63998;52.488;13.428;2023-07-02T09:24:27;100086.56;;;18.48;51.89
75420;BME280;63998;52.488;13.428;2023-07-02T09:26:56;100119.84;;;18.49;51.69
75420;BME280;63998;52.488;13.428;2023-07-02T09:29:30;100084.63;;;18.53;51.35
75420;BME280;63998;52.488;13.428;2023-07-02T09:32:00;100084.91;;;18.67;51.09
75420;BME280;63998;52.488;13.428;2023-07-02T09:34:29;100094.50;;;18.68;50.81
75420;BME280;63998;52.488;13.428;2023-07-02T09:36:56;100098.22;;;18.64;50.27
75420;BME280;63998;52.488;13.428;2023-07-02T09:39:26;100095.81;;;18.58;50.86
75420;BME280;63998;52.488;13.428;2023-07-02T09:41:52;100090.56;;;18.58;50.83
75420;BME280;63998;52.488;13.428;2023-07-02T09:44:18;100091.13;;;18.66;50.90
75420;BME280;63998;52.488;13.428;2023-07-02T09:47:04;100085.84;;;18.66;51.55
75420;BME280;63998;52.488;13.428;2023-07-02T09:49:51;100120.91;;;18.67;50.82
75420;BME280;63998;52.488;13.428;2023-07-02T09:52:17;100090.59;;;18.78;51.57
75420;BME280;63998;52.488;13.428;2023-07-02T09:54:44;100090.31;;;18.84;51.70
75420;BME280;63998;52.488;13.428;2023-07-02T09:57:10;100086.78;;;18.85;51.18
75420;BME280;63998;52.488;13.428;2023-07-02T09:59:35;100082.81;;;18.95;51.16
75420;BME280;63998;52.488;13.428;2023-07-02T10:02:01;100091.78;;;18.91;51.19
75420;BME280;63998;52.488;13.428;2023-07-02T10:04:27;100102.69;;;18.82;51.07
75420;BME280;63998;52.488;13.428;2023-07-02T10:06:57;100084.75;;;19.12;50.84
75420;BME280;63998;52.488;13.428;2023-07-02T10:12:23;100069.06;;;19.48;49.23
75420;BME280;63998;52.488;13.428;2023-07-02T10:14:51;100086.88;;;19.63;49.13
75420;BME280;63998;52.488;13.428;2023-07-02T10:19:57;100075.72;;;19.94;49.49
75420;BME280;63998;52.488;13.428;2023-07-02T10:22:23;100087.72;;;20.01;48.97
75420;BME280;63998;52.488;13.428;2023-07-02T10:24:58;100079.63;;;20.23;48.85
75420;BME280;63998;52.488;13.428;2023-07-02T10:27:37;100090.78;;;20.28;48.78
75420;BME280;63998;52.488;13.428;2023-07-02T10:30:05;100080.16;;;19.94;49.71
75420;BME280;63998;52.488;13.428;2023-07-02T10:32:32;100085.00;;;19.84;50.26
75420;BME280;63998;52.488;13.428;2023-07-02T10:34:59;100078.16;;;19.99;49.53
75420;BME280;63998;52.488;13.428;2023-07-02T10:37:25;100087.41;;;20.07;49.75
75420;BME280;63998;52.488;13.428;2023-07-02T10:39:50;100066.75;;;19.98;50.47
75420;BME280;63998;52.488;13.428;2023-07-02T10:42:17;100064.88;;;20.38;50.16
75420;BME280;63998;52.488;13.428;2023-07-02T10:44:52;100061.50;;;20.34;49.63
75420;BME280;63998;52.488;13.428;2023-07-02T10:47:18;100054.09;;;20.60;49.16
75420;BME280;63998;52.488;13.428;2023-07-02T10:49:44;100054.81;;;20.63;47.34
75420;BME280;63998;52.488;13.428;2023-07-02T10:52:10;100065.03;;;20.69;47.86
75420;BME280;63998;52.488;13.428;2023-07-02T10:54:43;100064.50;;;20.63;47.05
75420;BME280;63998;52.488;13.428;2023-07-02T10:57:09;100086.06;;;20.54;48.15
75420;BME280;63998;52.488;13.428;2023-07-02T10:59:35;100071.09;;;20.54;48.67
75420;BME280;63998;52.488;13.428;2023-07-02T11:02:01;100062.34;;;20.71;48.04
75420;BME280;63998;52.488;13.428;2023-07-02T11:04:29;100064.50;;;20.97;48.03
75420;BME280;63998;52.488;13.428;2023-07-02T11:06:55;100061.66;;;21.17;47.26
75420;BME280;63998;52.488;13.428;2023-07-02T11:09:21;100046.59;;;21.37;45.71
75420;BME280;63998;52.488;13.428;2023-07-02T11:11:56;100063.03;;;21.42;44.98
75420;BME280;63998;52.488;13.428;2023-07-02T11:16:54;100075.19;;;21.29;44.30
75420;BME280;63998;52.488;13.428;2023-07-02T11:19:20;100078.66;;;21.46;44.46
75420;BME280;63998;52.488;13.428;2023-07-02T11:21:53;100067.88;;;21.34;45.04
75420;BME280;63998;52.488;13.428;2023-07-02T11:24:31;100077.06;;;21.27;45.09
75420;BME280;63998;52.488;13.428;2023-07-02T11:26:58;100078.94;;;21.25;45.31
75420;BME280;63998;52.488;13.428;2023-07-02T11:29:23;100076.72;;;21.15;45.82
75420;BME280;63998;52.488;13.428;2023-07-02T11:31:49;100091.69;;;20.82;45.84
75420;BME280;63998;52.488;13.428;2023-07-02T11:34:19;100101.00;;;20.72;46.03
75420;BME280;63998;52.488;13.428;2023-07-02T11:36:45;100094.91;;;20.53;46.38
75420;BME280;63998;52.488;13.428;2023-07-02T11:39:11;100089.63;;;20.53;46.25
75420;BME280;63998;52.488;13.428;2023-07-02T11:41:45;100119.50;;;20.36;44.67
75420;BME280;63998;52.488;13.428;2023-07-02T11:44:11;100106.41;;;20.69;43.91
75420;BME280;63998;52.488;13.428;2023-07-02T11:46:36;100092.34;;;21.03;42.86
75420;BME280;63998;52.488;13.428;2023-07-02T11:49:03;100101.78;;;21.26;42.98
75420;BME280;63998;52.488;13.428;2023-07-02T11:51:30;100101.09;;;22.04;41.23
75420;BME280;63998;52.488;13.428;2023-07-02T11:53:56;100110.28;;;21.97;39.65
75420;BME280;63998;52.488;13.428;2023-07-02T11:56:21;100100.97;;;21.90;39.54
75420;BME280;63998;52.488;13.428;2023-07-02T11:58:46;100099.50;;;21.68;39.66
75420;BME280;63998;52.488;13.428;2023-07-02T12:01:12;100143.09;;;21.44;38.39
75420;BME280;63998;52.488;13.428;2023-07-02T12:03:37;100122.44;;;21.35;38.52
75420;BME280;63998;52.488;13.428;2023-07-02T12:06:02;100142.31;;;21.42;38.15
75420;BME280;63998;52.488;13.428;2023-07-02T12:08:28;100108.56;;;21.96;37.87
75420;BME280;63998;52.488;13.428;2023-07-02T12:10:54;100122.44;;;22.32;36.90
75420;BME280;63998;52.488;13.428;2023-07-02T12:13:19;100104.16;;;22.43;36.87
75420;BME280;63998;52.488;13.428;2023-07-02T12:15:48;100105.25;;;22.39;36.71
75420;BME280;63998;52.488;13.428;2023-07-02T12:18:15;100103.75;;;22.81;36.32
75420;BME280;63998;52.488;13.428;2023-07-02T12:20:40;100101.41;;;22.61;35.26
75420;BME280;63998;52.488;13.428;2023-07-02T12:23:06;100116.13;;;23.24;34.50
75420;BME280;63998;52.488;13.428;2023-07-02T12:25:31;100087.22;;;23.36;34.28
75420;BME280;63998;52.488;13.428;2023-07-02T12:27:56;100122.34;;;22.95;33.58
75420;BME280;63998;52.488;13.428;2023-07-02T12:30:22;100109.09;;;22.49;33.94
75420;BME280;63998;52.488;13.428;2023-07-02T12:32:47;100116.06;;;22.50;34.52
75420;BME280;63998;52.488;13.428;2023-07-02T12:35:13;100149.53;;;22.83;34.48
75420;BME280;63998;52.488;13.428;2023-07-02T12:37:45;100109.34;;;23.20;34.25
75420;BME280;63998;52.488;13.428;2023-07-02T12:40:11;100122.97;;;23.28;34.29
75420;BME280;63998;52.488;13.428;2023-07-02T12:42:37;100113.28;;;22.99;34.18
75420;BME280;63998;52.488;13.428;2023-07-02T12:45:03;100137.50;;;23.07;33.56
75420;BME280;63998;52.488;13.428;2023-07-02T12:47:29;100158.09;;;22.72;34.05
75420;BME280;63998;52.488;13.428;2023-07-02T12:49:54;100119.16;;;23.18;33.68
75420;BME280;63998;52.488;13.428;2023-07-02T12:52:19;100116.53;;;23.33;33.30